Time;durP1;ratioP1;P1;durP2;ratioP2;P2;SDS_P1;SDS_P2;PMS_P1;PMS_P2;Temp;Humidity;BMP_temperature;BMP_pressure;BME280_temperature;BME280_humidity;BME280_pressure;Samples;Min_cycle;Max_cycle;Signal;HPM_P1;HPM_P2
2021/05/03 00:00:06;;;;;;;;;;;5.60;99.90;;;;;;5109384;28;19927;-62
2021/05/03 00:02:52;;;;;;;;;;;5.70;99.90;;;;;;5102552;28;19927;-62
2021/05/03 00:05:20;;;;;;;;;;;5.60;99.90;;;;;;5127091;28;20386;-64
2021/05/03 00:07:45;;;;;;;;;;;5.60;99.90;;;;;;5132210;27;19924;-63
2021/05/03 00:10:11;;;;;;;;;;;5.60;99.90;;;;;;5130024;27;20357;-63
2021/05/03 00:12:37;;;;;;;;;;;5.60;99.90;;;;;;5133052;27;20025;-63
2021/05/03 00:15:04;;;;;;;;;;;5.60;99.90;;;;;;5133372;27;20014;-63
2021/05/03 00:17:29;;;;;;;;;;;5.60;99.90;;;;;;5132885;27;19927;-64
2021/05/03 00:19:55;;;;;;;;;;;5.60;99.90;;;;;;5132934;27;19927;-67
2021/05/03 00:22:21;;;;;;;;;;;5.60;99.90;;;;;;5118526;27;19963;-66
2021/05/03 00:24:47;;;;;;;;;;;5.60;99.90;;;;;;5126260;27;19973;-65
2021/05/03 00:27:13;;;;;;;;;;;5.60;99.90;;;;;;5128748;27;19973;-67
2021/05/03 00:29:41;;;;;;;;;;;5.60;99.90;;;;;;5132497;27;19975;-66
2021/05/03 00:32:07;;;;;;;;;;;5.60;99.90;;;;;;5132797;27;19955;-68
2021/05/03 00:34:33;;;;;;;;;;;5.60;99.90;;;;;;5118589;27;20026;-64
2021/05/03 00:36:59;;;;;;;;;;;5.60;99.90;;;;;;5112330;28;20011;-65
2021/05/03 00:39:25;;;;;;;;;;;5.60;99.90;;;;;;5111711;28;19923;-65
2021/05/03 00:41:51;;;;;;;;;;;5.60;99.90;;;;;;5112007;28;20051;-64
2021/05/03 00:44:17;;;;;;;;;;;5.60;99.90;;;;;;5111936;28;19985;-63
2021/05/03 00:46:43;;;;;;;;;;;5.50;99.90;;;;;;5112081;28;19967;-65
2021/05/03 00:49:08;;;;;;;;;;;5.50;99.90;;;;;;5111896;28;20546;-66
2021/05/03 00:51:34;;;;;;;;;;;5.60;99.90;;;;;;5112153;28;19966;-64
2021/05/03 00:54:00;;;;;;;;;;;5.60;99.90;;;;;;5111575;28;20072;-64
2021/05/03 00:56:26;;;;;;;;;;;5.60;99.90;;;;;;5111647;28;20010;-62
2021/05/03 00:58:52;;;;;;;;;;;5.50;99.90;;;;;;5111777;28;19974;-63
2021/05/03 01:04:21;;;;;;;;;;;5.50;99.90;;;;;;4951714;28;19957;-64
2021/05/03 01:06:47;;;;;;;;;;;5.50;99.90;;;;;;4953293;28;20381;-64
2021/05/03 01:09:13;;;;;;;;;;;5.60;99.90;;;;;;4956022;29;19937;-67
2021/05/03 01:11:39;;;;;;;;;;;5.60;99.90;;;;;;4952749;28;20013;-69
2021/05/03 01:14:05;;;;;;;;;;;5.60;99.90;;;;;;4950197;29;20041;-67
2021/05/03 01:16:31;;;;;;;;;;;5.50;99.90;;;;;;4949999;29;19931;-68
2021/05/03 01:18:57;;;;;;;;;;;5.50;99.90;;;;;;4949294;28;20384;-70
2021/05/03 01:21:26;;;;;;;;;;;5.50;99.90;;;;;;4949957;29;19937;-68
2021/05/03 01:23:53;;;;;;;;;;;5.50;99.90;;;;;;4949799;29;19982;-66
2021/05/03 01:26:19;;;;;;;;;;;5.50;99.90;;;;;;4950073;29;19954;-69
2021/05/03 01:28:45;;;;;;;;;;;5.50;99.90;;;;;;4949959;29;19933;-66
2021/05/03 01:31:11;;;;;;;;;;;5.50;99.90;;;;;;4950046;29;20025;-66
2021/05/03 01:33:37;;;;;;;;;;;5.50;99.90;;;;;;4949656;29;20014;-69
2021/05/03 01:36:03;;;;;;;;;;;5.50;99.90;;;;;;4950676;28;20033;-71
2021/05/03 01:38:29;;;;;;;;;;;5.50;99.90;;;;;;4949673;29;20804;-66
2021/05/03 01:40:55;;;;;;;;;;;5.50;99.90;;;;;;4953528;28;19930;-66
2021/05/03 01:43:25;;;;;;;;;;;5.50;99.90;;;;;;4971104;28;19936;-66
2021/05/03 01:45:52;;;;;;;;;;;5.50;99.90;;;;;;4971753;28;19985;-65
2021/05/03 01:48:22;;;;;;;;;;;5.50;99.90;;;;;;4971433;28;20012;-70
2021/05/03 01:50:48;;;;;;;;;;;5.50;99.90;;;;;;4969781;28;19926;-67
2021/05/03 01:53:15;;;;;;;;;;;5.50;99.90;;;;;;4969855;28;19929;-70
2021/05/03 01:55:42;;;;;;;;;;;5.50;99.90;;;;;;4971033;28;19930;-66
2021/05/03 01:58:08;;;;;;;;;;;5.50;99.90;;;;;;4971024;28;20012;-69
2021/05/03 02:00:35;;;;;;;;;;;5.50;99.90;;;;;;4971277;28;20020;-71
2021/05/03 02:03:01;;;;;;;;;;;5.50;99.90;;;;;;4969033;28;19930;-68
2021/05/03 02:05:28;;;;;;;;;;;5.50;99.90;;;;;;4971345;28;19930;-69
2021/05/03 02:07:58;;;;;;;;;;;5.50;99.90;;;;;;4970978;28;19930;-68
2021/05/03 02:10:24;;;;;;;;;;;5.50;99.90;;;;;;4971009;28;20345;-70
2021/05/03 02:12:51;;;;;;;;;;;5.50;99.90;;;;;;4970264;28;20005;-71
2021/05/03 02:15:17;;;;;;;;;;;5.50;99.90;;;;;;4970755;28;19930;-71
2021/05/03 02:17:43;;;;;;;;;;;5.50;99.90;;;;;;4985712;28;19934;-70
2021/05/03 02:20:09;;;;;;;;;;;5.50;99.90;;;;;;4970497;28;19948;-72
2021/05/03 02:22:35;;;;;;;;;;;5.50;99.90;;;;;;4970798;28;20215;-72
2021/05/03 02:25:01;;;;;;;;;;;5.40;99.90;;;;;;4970850;28;20069;-70
2021/05/03 02:27:28;;;;;;;;;;;5.40;99.90;;;;;;4984662;28;19977;-69
2021/05/03 02:29:56;;;;;;;;;;;5.50;99.90;;;;;;4985083;28;19930;-70
2021/05/03 02:32:22;;;;;;;;;;;5.50;99.90;;;;;;4969139;28;19930;-68
2021/05/03 02:34:48;;;;;;;;;;;5.50;99.90;;;;;;4968731;28;19933;-67
2021/05/03 02:37:14;;;;;;;;;;;5.50;99.90;;;;;;4969944;28;20014;-68
2021/05/03 02:39:42;;;;;;;;;;;5.50;99.90;;;;;;4985104;28;20368;-65
2021/05/03 02:42:09;;;;;;;;;;;5.40;99.90;;;;;;4969560;28;20017;-66
2021/05/03 02:44:39;;;;;;;;;;;5.40;99.90;;;;;;4970045;28;19973;-65
2021/05/03 02:47:06;;;;;;;;;;;5.40;99.90;;;;;;4969816;28;19930;-65
2021/05/03 02:49:32;;;;;;;;;;;5.40;99.90;;;;;;4985319;28;20283;-65
2021/05/03 02:51:58;;;;;;;;;;;5.40;99.90;;;;;;4970172;28;19936;-65
2021/05/03 02:54:24;;;;;;;;;;;5.40;99.90;;;;;;4970020;28;20012;-65
2021/05/03 02:56:50;;;;;;;;;;;5.40;99.90;;;;;;4970329;28;20017;-65
2021/05/03 02:59:16;;;;;;;;;;;5.40;99.90;;;;;;4970250;28;20025;-65
2021/05/03 03:01:42;;;;;;;;;;;5.40;99.90;;;;;;4970200;28;19984;-65
2021/05/03 03:04:07;;;;;;;;;;;5.40;99.90;;;;;;4986218;28;20373;-64
2021/05/03 03:06:33;;;;;;;;;;;5.40;99.90;;;;;;4989700;28;20405;-64
2021/05/03 03:08:59;;;;;;;;;;;5.50;99.90;;;;;;4989203;28;20020;-64
2021/05/03 03:11:25;;;;;;;;;;;5.50;99.90;;;;;;4989263;28;20016;-64
2021/05/03 03:13:51;;;;;;;;;;;5.50;99.90;;;;;;4989479;28;20021;-65
2021/05/03 03:16:21;;;;;;;;;;;5.50;99.90;;;;;;4989258;28;20405;-64
2021/05/03 03:18:47;;;;;;;;;;;5.40;99.90;;;;;;4972194;28;19992;-64
2021/05/03 03:21:13;;;;;;;;;;;5.40;99.90;;;;;;4989323;28;20009;-65
2021/05/03 03:23:39;;;;;;;;;;;5.50;99.90;;;;;;4989265;28;20040;-64
2021/05/03 03:26:05;;;;;;;;;;;5.40;99.90;;;;;;4972311;28;20004;-64
2021/05/03 03:28:31;;;;;;;;;;;5.40;99.90;;;;;;4989178;28;20370;-64
2021/05/03 03:30:57;;;;;;;;;;;5.40;99.90;;;;;;4988908;28;19929;-65
2021/05/03 03:33:23;;;;;;;;;;;5.50;99.90;;;;;;4989174;28;20365;-64
2021/05/03 03:35:49;;;;;;;;;;;5.40;99.90;;;;;;4989033;28;20360;-64
2021/05/03 03:38:15;;;;;;;;;;;5.40;99.90;;;;;;4988919;28;19961;-65
2021/05/03 03:40:42;;;;;;;;;;;5.50;99.90;;;;;;4989346;28;20041;-64
2021/05/03 03:43:08;;;;;;;;;;;5.50;99.90;;;;;;4992849;28;20020;-64
2021/05/03 03:45:34;;;;;;;;;;;5.50;99.90;;;;;;4975816;28;20000;-64
2021/05/03 03:48:00;;;;;;;;;;;5.50;99.90;;;;;;4991668;28;20428;-65
2021/05/03 03:50:26;;;;;;;;;;;5.50;99.90;;;;;;4991458;28;19934;-64
2021/05/03 03:52:52;;;;;;;;;;;5.50;99.90;;;;;;4992652;28;19961;-64
2021/05/03 03:55:18;;;;;;;;;;;5.50;99.90;;;;;;4992664;28;19961;-65
2021/05/03 03:57:43;;;;;;;;;;;5.50;99.90;;;;;;4992812;28;20016;-64
2021/05/03 04:00:10;;;;;;;;;;;5.50;99.90;;;;;;4992621;28;19930;-64
2021/05/03 04:02:36;;;;;;;;;;;5.60;99.90;;;;;;4992447;28;19929;-64
2021/05/03 04:05:31;;;;;;;;;;;5.60;99.90;;;;;;4992739;28;20036;-65
2021/05/03 04:08:45;;;;;;;;;;;5.50;99.90;;;;;;4992560;28;19934;-64
2021/05/03 04:24:41;;;;;;;;;;;5.70;99.90;;;;;;4991152;28;19929;-65
2021/05/03 04:27:07;;;;;;;;;;;5.70;99.90;;;;;;4992159;28;20013;-65
2021/05/03 04:29:33;;;;;;;;;;;5.70;99.90;;;;;;4992190;28;20072;-65
2021/05/03 04:31:59;;;;;;;;;;;5.70;99.90;;;;;;4992257;28;20471;-65
2021/05/03 04:34:25;;;;;;;;;;;5.60;99.90;;;;;;4992052;28;19972;-65
2021/05/03 04:36:51;;;;;;;;;;;5.60;99.90;;;;;;4990664;28;19932;-65
2021/05/03 04:39:16;;;;;;;;;;;5.70;99.90;;;;;;4991961;28;20032;-65
2021/05/03 04:41:42;;;;;;;;;;;5.70;99.90;;;;;;4991830;28;19929;-65
2021/05/03 04:44:08;;;;;;;;;;;5.70;99.90;;;;;;4992100;28;20347;-65
2021/05/03 04:46:34;;;;;;;;;;;5.80;99.90;;;;;;4992089;28;19996;-65
2021/05/03 04:49:00;;;;;;;;;;;5.80;99.90;;;;;;4991974;28;19965;-65
2021/05/03 04:51:26;;;;;;;;;;;5.80;99.90;;;;;;4991599;28;19976;-65
2021/05/03 04:53:51;;;;;;;;;;;5.80;99.90;;;;;;4990440;28;19969;-65
2021/05/03 04:56:17;;;;;;;;;;;5.90;99.90;;;;;;4991534;28;19956;-65
2021/05/03 04:58:43;;;;;;;;;;;5.90;99.90;;;;;;4991842;28;20036;-65
2021/05/03 05:01:09;;;;;;;;;;;6.00;99.90;;;;;;4991531;28;20378;-65
2021/05/03 05:03:35;;;;;;;;;;;6.10;99.90;;;;;;4991621;28;20020;-64
2021/05/03 05:06:02;;;;;;;;;;;6.10;99.90;;;;;;4991180;28;20036;-65
2021/05/03 05:08:27;;;;;;;;;;;6.20;99.90;;;;;;4991464;28;19957;-65
2021/05/03 05:10:53;;;;;;;;;;;6.30;99.90;;;;;;4989941;28;19930;-65
2021/05/03 05:13:19;;;;;;;;;;;6.40;99.90;;;;;;4991621;28;20341;-66
2021/05/03 05:15:45;;;;;;;;;;;6.50;99.90;;;;;;4991439;28;19968;-70
2021/05/03 05:18:11;;;;;;;;;;;6.60;99.90;;;;;;4991275;28;19973;-66
2021/05/03 05:20:37;;;;;;;;;;;6.70;99.90;;;;;;4990954;28;20056;-65
2021/05/03 05:23:06;;;;;;;;;;;6.80;99.90;;;;;;4989963;28;20016;-65
2021/05/03 05:25:33;;;;;;;;;;;6.90;99.90;;;;;;4991044;28;20079;-64
2021/05/03 05:27:59;;;;;;;;;;;7.00;99.60;;;;;;4991191;28;19926;-65
2021/05/03 05:30:25;;;;;;;;;;;7.10;99.00;;;;;;4985367;28;19932;-62
2021/05/03 05:32:51;;;;;;;;;;;7.10;99.90;;;;;;4988266;28;20397;-63
2021/05/03 05:35:17;;;;;;;;;;;7.10;98.80;;;;;;4986994;28;20031;-64
2021/05/03 05:37:43;;;;;;;;;;;7.20;98.40;;;;;;4989045;28;20332;-63
2021/05/03 05:40:09;;;;;;;;;;;7.30;98.10;;;;;;4988437;28;19930;-64
2021/05/03 05:42:35;;;;;;;;;;;7.40;97.70;;;;;;4988635;28;19930;-63
2021/05/03 05:45:02;;;;;;;;;;;7.60;97.20;;;;;;4988987;28;20032;-63
2021/05/03 05:47:28;;;;;;;;;;;7.70;96.50;;;;;;4988148;28;19926;-63
2021/05/03 05:49:54;;;;;;;;;;;7.90;94.90;;;;;;4987022;28;20004;-63
2021/05/03 05:52:19;;;;;;;;;;;7.90;94.50;;;;;;4988355;28;19926;-64
2021/05/03 05:54:45;;;;;;;;;;;7.80;95.10;;;;;;4987723;28;20374;-63
2021/05/03 05:57:11;;;;;;;;;;;7.80;94.70;;;;;;4988092;28;19941;-64
2021/05/03 05:59:37;;;;;;;;;;;7.90;94.90;;;;;;4985854;28;20020;-65
2021/05/03 06:02:03;;;;;;;;;;;7.90;94.70;;;;;;4988071;28;19930;-65
2021/05/03 06:04:31;;;;;;;;;;;7.90;95.00;;;;;;4987158;28;19956;-65
2021/05/03 06:06:57;;;;;;;;;;;7.90;94.20;;;;;;4987473;28;19941;-65
2021/05/03 06:09:23;;;;;;;;;;;7.90;93.60;;;;;;4987065;28;19926;-65
2021/05/03 06:11:49;;;;;;;;;;;8.00;93.20;;;;;;4987047;28;19976;-73
2021/05/03 06:14:15;;;;;;;;;;;8.00;92.00;;;;;;4990229;28;19981;-65
2021/05/03 06:16:41;;;;;;;;;;;8.10;91.20;;;;;;4989624;28;20016;-64
2021/05/03 06:19:07;;;;;;;;;;;8.20;91.90;;;;;;4989930;28;20013;-67
2021/05/03 06:21:33;;;;;;;;;;;8.30;90.60;;;;;;4989210;28;20024;-70
2021/05/03 06:23:59;;;;;;;;;;;8.30;89.80;;;;;;4989620;28;20309;-70
2021/05/03 06:26:25;;;;;;;;;;;8.30;90.20;;;;;;4972043;28;19972;-69
2021/05/03 06:28:51;;;;;;;;;;;8.30;90.60;;;;;;4989206;28;20012;-75
2021/05/03 06:31:19;;;;;;;;;;;8.20;90.10;;;;;;4988603;28;20017;-73
2021/05/03 06:33:46;;;;;;;;;;;8.20;88.90;;;;;;4990200;28;19973;-78
2021/05/03 06:36:12;;;;;;;;;;;8.20;89.10;;;;;;4990443;28;19984;-75
2021/05/03 06:38:38;;;;;;;;;;;8.10;90.90;;;;;;4990906;28;19930;-78
2021/05/03 06:41:03;;;;;;;;;;;8.10;90.00;;;;;;4986025;28;19933;-78
2021/05/03 06:43:29;;;;;;;;;;;8.10;90.30;;;;;;4989212;28;20416;-73
2021/05/03 06:45:57;;;;;;;;;;;8.10;89.60;;;;;;4969028;28;20286;-73
2021/05/03 06:48:24;;;;;;;;;;;8.10;89.50;;;;;;4984355;28;19934;-78
2021/05/03 06:50:49;;;;;;;;;;;8.10;89.00;;;;;;4989382;28;20397;-76
2021/05/03 06:53:15;;;;;;;;;;;8.10;89.50;;;;;;4989344;28;19983;-73
2021/05/03 06:55:42;;;;;;;;;;;8.10;90.50;;;;;;4971648;28;19930;-76
2021/05/03 06:58:08;;;;;;;;;;;8.00;90.20;;;;;;4984521;28;20198;-77
2021/05/03 07:00:43;;;;;;;;;;;8.10;91.40;;;;;;4988596;28;20345;-78
2021/05/03 07:03:11;;;;;;;;;;;8.00;89.20;;;;;;4987820;28;19992;-76
2021/05/03 07:05:38;;;;;;;;;;;8.00;89.00;;;;;;4977511;28;20048;-73
2021/05/03 07:08:04;;;;;;;;;;;8.00;89.10;;;;;;4980665;28;19972;-78
2021/05/03 07:10:31;;;;;;;;;;;8.00;88.00;;;;;;4977363;28;19930;-79
2021/05/03 07:12:57;;;;;;;;;;;8.00;87.00;;;;;;4982417;28;20012;-74
2021/05/03 07:15:23;;;;;;;;;;;8.00;87.60;;;;;;4980826;28;20590;-73
2021/05/03 07:17:49;;;;;;;;;;;8.10;87.00;;;;;;4983024;28;20017;-73
2021/05/03 07:20:15;;;;;;;;;;;8.20;87.70;;;;;;4962407;28;20031;-73
2021/05/03 07:22:41;;;;;;;;;;;8.30;87.00;;;;;;4982199;28;19968;-70
2021/05/03 07:25:08;;;;;;;;;;;8.30;84.90;;;;;;4981393;28;19970;-70
2021/05/03 07:27:35;;;;;;;;;;;8.20;85.50;;;;;;4982726;28;19956;-68
2021/05/03 07:30:00;;;;;;;;;;;8.20;85.70;;;;;;4980828;28;20376;-68
2021/05/03 07:32:26;;;;;;;;;;;8.20;85.10;;;;;;4985753;28;19977;-71
2021/05/03 07:34:52;;;;;;;;;;;8.40;84.50;;;;;;4983333;28;20016;-70
2021/05/03 07:37:18;;;;;;;;;;;9.10;83.20;;;;;;4985598;28;19984;-75
2021/05/03 07:39:44;;;;;;;;;;;9.80;78.40;;;;;;4982896;28;20005;-71
2021/05/03 07:42:11;;;;;;;;;;;10.10;76.00;;;;;;4985522;28;20009;-72
2021/05/03 07:44:37;;;;;;;;;;;10.30;73.50;;;;;;4981594;28;19950;-69
2021/05/03 07:47:03;;;;;;;;;;;10.30;73.60;;;;;;4985566;28;19930;-70
2021/05/03 07:49:29;;;;;;;;;;;10.30;70.90;;;;;;4980745;28;19988;-75
2021/05/03 07:51:55;;;;;;;;;;;10.20;73.30;;;;;;4985222;28;19965;-79
2021/05/03 07:54:21;;;;;;;;;;;10.10;72.70;;;;;;4966008;28;19926;-72
2021/05/03 07:56:47;;;;;;;;;;;9.90;73.70;;;;;;4983281;28;20056;-70
2021/05/03 07:59:13;;;;;;;;;;;9.80;71.10;;;;;;4967285;28;20013;-73
2021/05/03 08:01:39;;;;;;;;;;;9.50;72.20;;;;;;4984013;28;19968;-73
2021/05/03 08:04:05;;;;;;;;;;;9.40;76.20;;;;;;4983386;28;19965;-78
2021/05/03 08:06:32;;;;;;;;;;;9.50;76.60;;;;;;4967972;28;19995;-76
2021/05/03 08:09:04;;;;;;;;;;;9.90;74.90;;;;;;4983564;28;19936;-72
2021/05/03 08:11:30;;;;;;;;;;;10.00;75.30;;;;;;4973800;28;20369;-77
2021/05/03 08:13:56;;;;;;;;;;;10.20;75.70;;;;;;4969422;28;20056;-73
2021/05/03 08:16:23;;;;;;;;;;;10.40;73.80;;;;;;4979657;28;19930;-72
2021/05/03 08:18:49;;;;;;;;;;;10.90;74.10;;;;;;4970915;28;19930;-76
2021/05/03 08:21:15;;;;;;;;;;;11.50;70.70;;;;;;4979185;28;20372;-73
2021/05/03 08:23:41;;;;;;;;;;;11.90;69.40;;;;;;4981115;28;20045;-74
2021/05/03 08:26:08;;;;;;;;;;;12.10;70.00;;;;;;4968284;28;20351;-70
2021/05/03 08:28:34;;;;;;;;;;;12.20;67.60;;;;;;4984062;28;19933;-68
2021/05/03 08:31:00;;;;;;;;;;;12.10;66.10;;;;;;4986734;28;19937;-68
2021/05/03 08:33:29;;;;;;;;;;;11.90;66.00;;;;;;4988500;28;20269;-68
2021/05/03 08:35:58;;;;;;;;;;;11.90;66.60;;;;;;4973903;28;20342;-66
2021/05/03 08:38:26;;;;;;;;;;;11.90;66.70;;;;;;4964226;28;19949;-65
2021/05/03 08:40:53;;;;;;;;;;;12.20;65.60;;;;;;4974771;28;20028;-65
2021/05/03 08:43:19;;;;;;;;;;;12.40;65.70;;;;;;4980078;28;19929;-72
2021/05/03 08:45:45;;;;;;;;;;;12.80;63.70;;;;;;4961485;28;20419;-64
2021/05/03 08:48:24;;;;;;;;;;;13.00;63.10;;;;;;4962283;28;19930;-63
2021/05/03 08:53:54;;;;;;;;;;;13.30;60.90;;;;;;4973630;28;19941;-65
2021/05/03 08:56:20;;;;;;;;;;;13.10;61.30;;;;;;4979920;28;19936;-64
2021/05/03 08:58:46;;;;;;;;;;;12.90;64.00;;;;;;4985045;28;19929;-64
2021/05/03 09:01:12;;;;;;;;;;;12.90;62.00;;;;;;4981124;28;20040;-65
2021/05/03 09:03:40;;;;;;;;;;;12.90;60.60;;;;;;4984545;28;19930;-65
2021/05/03 09:06:09;;;;;;;;;;;12.80;60.40;;;;;;4983108;28;20016;-66
2021/05/03 09:08:35;;;;;;;;;;;12.80;62.20;;;;;;4986213;28;19936;-66
2021/05/03 09:11:01;;;;;;;;;;;12.60;62.30;;;;;;4983964;28;20325;-71
2021/05/03 09:13:31;;;;;;;;;;;12.60;61.30;;;;;;4970177;28;20015;-70
2021/05/03 09:16:12;;;;;;;;;;;12.30;61.70;;;;;;4984194;28;20348;-71
2021/05/03 09:18:39;;;;;;;;;;;12.10;62.00;;;;;;4985810;28;19930;-71
2021/05/03 09:21:05;;;;;;;;;;;11.80;62.70;;;;;;4983675;28;20032;-71
2021/05/03 09:23:54;;;;;;;;;;;11.80;63.70;;;;;;4968999;28;19936;-71
2021/05/03 09:26:38;;;;;;;;;;;11.80;62.50;;;;;;4981551;28;20415;-71
2021/05/03 09:29:22;;;;;;;;;;;11.90;63.10;;;;;;4978826;28;19930;-70
2021/05/03 09:31:55;;;;;;;;;;;11.80;64.20;;;;;;4983440;28;19973;-70
2021/05/03 09:34:28;;;;;;;;;;;11.60;62.70;;;;;;4980207;28;20402;-79
2021/05/03 09:37:15;;;;;;;;;;;11.40;62.80;;;;;;4980101;28;19976;-74
2021/05/03 09:39:41;;;;;;;;;;;11.20;62.50;;;;;;4975483;28;19929;-72
2021/05/03 09:42:07;;;;;;;;;;;11.10;64.10;;;;;;4984286;28;20369;-72
2021/05/03 09:44:35;;;;;;;;;;;11.00;65.00;;;;;;4987728;28;20021;-71
2021/05/03 09:47:01;;;;;;;;;;;10.90;65.20;;;;;;4979094;28;19973;-62
2021/05/03 09:49:28;;;;;;;;;;;10.90;65.00;;;;;;4983133;28;20056;-63
2021/05/03 09:51:59;;;;;;;;;;;10.90;65.30;;;;;;4978877;28;19973;-64
2021/05/03 09:54:27;;;;;;;;;;;11.00;66.00;;;;;;4989449;28;20048;-63
2021/05/03 09:56:54;;;;;;;;;;;11.20;64.80;;;;;;4982127;28;19936;-65
2021/05/03 09:59:24;;;;;;;;;;;11.20;64.60;;;;;;4987724;28;19966;-65
2021/05/03 10:02:15;;;;;;;;;;;11.20;63.80;;;;;;4978694;28;19930;-66
2021/05/03 10:04:47;;;;;;;;;;;11.10;64.70;;;;;;4971651;28;20037;-63
2021/05/03 10:07:16;;;;;;;;;;;11.00;66.50;;;;;;4966551;28;19930;-63
2021/05/03 10:09:46;;;;;;;;;;;10.80;65.40;;;;;;4983835;28;20053;-63
2021/05/03 10:12:12;;;;;;;;;;;10.60;64.70;;;;;;4985509;28;20248;-66
2021/05/03 10:14:38;;;;;;;;;;;10.30;67.30;;;;;;4985203;28;20612;-67
2021/05/03 10:17:04;;;;;;;;;;;10.10;67.40;;;;;;4985677;28;19930;-68
2021/05/03 10:19:30;;;;;;;;;;;10.00;69.60;;;;;;4985184;28;19930;-64
2021/05/03 10:21:56;;;;;;;;;;;9.70;69.70;;;;;;4985318;28;19965;-64
2021/05/03 10:24:22;;;;;;;;;;;9.40;70.60;;;;;;4984601;28;20437;-66
2021/05/03 10:26:50;;;;;;;;;;;9.30;70.90;;;;;;4984204;28;19941;-66
2021/05/03 10:29:40;;;;;;;;;;;9.20;73.20;;;;;;4984989;28;19930;-67
2021/05/03 10:32:07;;;;;;;;;;;9.10;72.90;;;;;;4964095;28;19930;-65
2021/05/03 10:34:37;;;;;;;;;;;9.10;72.90;;;;;;4976907;28;19930;-66
2021/05/03 10:37:03;;;;;;;;;;;9.20;72.90;;;;;;4968528;28;19930;-67
2021/05/03 10:39:29;;;;;;;;;;;9.30;71.80;;;;;;4980698;28;20365;-66
2021/05/03 10:42:22;;;;;;;;;;;9.60;71.10;;;;;;4981263;28;20028;-65
2021/05/03 10:45:08;;;;;;;;;;;10.90;69.70;;;;;;4977108;28;20040;-66
2021/05/03 10:47:44;;;;;;;;;;;14.70;60.50;;;;;;4977183;28;19965;-66
2021/05/03 10:50:32;;;;;;;;;;;18.50;51.20;;;;;;4975557;28;20008;-66
2021/05/03 10:53:17;;;;;;;;;;;21.00;44.40;;;;;;4980245;28;20449;-69
2021/05/03 10:56:09;;;;;;;;;;;23.40;41.20;;;;;;4977870;28;19930;-66
2021/05/03 10:58:53;;;;;;;;;;;24.70;35.50;;;;;;4977135;28;19929;-64
2021/05/03 11:01:19;;;;;;;;;;;23.90;35.20;;;;;;4964523;28;19929;-66
2021/05/03 11:04:08;;;;;;;;;;;21.80;37.90;;;;;;4980406;28;19984;-64
2021/05/03 11:06:43;;;;;;;;;;;20.10;40.80;;;;;;4974820;28;19937;-66
2021/05/03 11:09:31;;;;;;;;;;;18.60;48.00;;;;;;4979463;28;19926;-69
2021/05/03 11:11:57;;;;;;;;;;;17.60;52.40;;;;;;4984602;28;20366;-67
2021/05/03 11:14:31;;;;;;;;;;;16.70;52.20;;;;;;4987351;28;19941;-66
2021/05/03 11:17:04;;;;;;;;;;;16.10;52.60;;;;;;4986452;28;20034;-66
2021/05/03 11:22:20;;;;;;;;;;;15.70;52.50;;;;;;4985652;28;20439;-65
2021/05/03 11:27:26;;;;;;;;;;;16.70;50.60;;;;;;4986533;28;20457;-65
2021/05/03 11:30:03;;;;;;;;;;;16.60;50.10;;;;;;4979999;28;19933;-66
2021/05/03 11:32:31;;;;;;;;;;;16.40;50.30;;;;;;4991664;28;19983;-66
2021/05/03 11:35:10;;;;;;;;;;;16.30;50.10;;;;;;4987761;28;19979;-67
2021/05/03 11:38:02;;;;;;;;;;;16.10;50.70;;;;;;4987221;28;20327;-67
2021/05/03 11:46:32;;;;;;;;;;;15.60;49.40;;;;;;4980537;28;20031;-67
2021/05/03 11:48:59;;;;;;;;;;;16.00;50.60;;;;;;4986112;28;19972;-67
2021/05/03 11:51:26;;;;;;;;;;;16.10;47.90;;;;;;4969264;28;20028;-67
2021/05/03 11:53:52;;;;;;;;;;;16.00;48.00;;;;;;4984931;28;19926;-67
2021/05/03 11:56:18;;;;;;;;;;;16.00;50.10;;;;;;4986653;28;19945;-67
2021/05/03 11:58:49;;;;;;;;;;;16.10;49.10;;;;;;4985650;28;19965;-65
2021/05/03 12:01:16;;;;;;;;;;;16.00;49.60;;;;;;4985952;28;20349;-66
2021/05/03 12:03:43;;;;;;;;;;;15.90;50.50;;;;;;4988679;28;20013;-65
2021/05/03 12:06:09;;;;;;;;;;;15.70;51.10;;;;;;4990374;28;20024;-64
2021/05/03 12:08:34;;;;;;;;;;;15.60;50.80;;;;;;4990149;28;19932;-64
2021/05/03 12:11:07;;;;;;;;;;;15.70;51.60;;;;;;4989591;28;19925;-65
2021/05/03 12:13:33;;;;;;;;;;;15.70;51.80;;;;;;4989775;28;20048;-64
2021/05/03 12:15:59;;;;;;;;;;;15.60;51.50;;;;;;4989906;28;20024;-65
2021/05/03 12:18:25;;;;;;;;;;;15.50;50.20;;;;;;4987830;28;19926;-69
2021/05/03 12:20:53;;;;;;;;;;;15.40;50.40;;;;;;4991993;28;20007;-65
2021/05/03 12:23:23;;;;;;;;;;;15.20;50.70;;;;;;4991989;28;19973;-66
2021/05/03 12:25:51;;;;;;;;;;;15.20;52.10;;;;;;4992150;28;20016;-66
2021/05/03 12:28:17;;;;;;;;;;;15.20;51.40;;;;;;4992915;28;19971;-66
2021/05/03 12:30:44;;;;;;;;;;;15.20;51.50;;;;;;4992779;28;20055;-67
2021/05/03 12:33:12;;;;;;;;;;;15.20;52.10;;;;;;4992295;28;20027;-67
2021/05/03 12:35:39;;;;;;;;;;;15.20;51.90;;;;;;4992602;28;19936;-69
2021/05/03 12:38:14;;;;;;;;;;;15.20;52.30;;;;;;4992487;28;20076;-67
2021/05/03 12:40:40;;;;;;;;;;;15.40;53.30;;;;;;4992461;28;19926;-66
2021/05/03 12:43:07;;;;;;;;;;;15.60;50.90;;;;;;4992304;28;20381;-65
2021/05/03 12:56:20;;;;;;;;;;;15.70;51.20;;;;;;4991629;28;19976;-71
2021/05/03 12:59:07;;;;;;;;;;;15.40;52.00;;;;;;4991790;28;20274;-68
2021/05/03 13:01:45;;;;;;;;;;;15.00;53.50;;;;;;4990137;28;19930;-71
2021/05/03 13:05:21;;;;;;;;;;;14.60;54.30;;;;;;4991276;28;20403;-74
2021/05/03 13:28:58;;;;;;;;;;;13.50;55.40;;;;;;4987662;28;20016;-67
2021/05/03 13:31:24;;;;;;;;;;;13.40;56.10;;;;;;4986266;28;19929;-64
2021/05/03 13:33:50;;;;;;;;;;;13.30;55.90;;;;;;4990844;28;19983;-65
2021/05/03 13:36:15;;;;;;;;;;;13.30;55.00;;;;;;4989449;28;20356;-66
2021/05/03 13:38:41;;;;;;;;;;;13.30;55.60;;;;;;4989137;28;19926;-64
2021/05/03 13:41:07;;;;;;;;;;;13.10;56.10;;;;;;4990350;28;20459;-65
2021/05/03 13:43:33;;;;;;;;;;;13.00;57.20;;;;;;4991824;28;20013;-64
2021/05/03 13:45:59;;;;;;;;;;;12.80;58.30;;;;;;4992895;28;20368;-67
2021/05/03 13:48:25;;;;;;;;;;;12.70;60.20;;;;;;4989413;28;19934;-67
2021/05/03 13:50:51;;;;;;;;;;;12.60;59.50;;;;;;4988615;28;20416;-67
2021/05/03 13:53:17;;;;;;;;;;;12.60;59.30;;;;;;4990037;28;19988;-67
2021/05/03 13:55:42;;;;;;;;;;;12.60;59.20;;;;;;4992137;28;20021;-67
2021/05/03 13:58:08;;;;;;;;;;;12.50;58.60;;;;;;4989613;28;19930;-66
2021/05/03 14:00:34;;;;;;;;;;;12.50;58.80;;;;;;4989190;28;20025;-64
2021/05/03 14:03:00;;;;;;;;;;;12.50;59.70;;;;;;4990846;28;20385;-67
2021/05/03 14:05:28;;;;;;;;;;;12.50;60.00;;;;;;4987222;28;20009;-66
2021/05/03 14:07:54;;;;;;;;;;;12.60;57.90;;;;;;4991076;28;20674;-67
2021/05/03 14:10:20;;;;;;;;;;;12.70;58.90;;;;;;4991237;28;19936;-68
2021/05/03 14:12:46;;;;;;;;;;;12.80;58.70;;;;;;4991493;28;20028;-66
2021/05/03 14:15:17;;;;;;;;;;;12.90;58.90;;;;;;4990442;28;20088;-66
2021/05/03 14:17:43;;;;;;;;;;;12.90;58.80;;;;;;4990293;28;19930;-65
2021/05/03 14:20:09;;;;;;;;;;;12.80;58.90;;;;;;4988032;28;19930;-65
2021/05/03 14:22:35;;;;;;;;;;;12.70;58.00;;;;;;4988518;28;20068;-64
2021/05/03 14:25:01;;;;;;;;;;;12.50;57.40;;;;;;4989942;28;20028;-65
2021/05/03 14:27:27;;;;;;;;;;;12.50;58.40;;;;;;4992632;28;20118;-66
2021/05/03 14:29:56;;;;;;;;;;;12.60;58.00;;;;;;4987794;28;19930;-71
2021/05/03 14:32:34;;;;;;;;;;;12.50;57.10;;;;;;4987503;28;20616;-72
2021/05/03 14:35:04;;;;;;;;;;;12.40;57.80;;;;;;4987803;28;19930;-71
2021/05/03 14:37:30;;;;;;;;;;;12.40;58.20;;;;;;4986010;28;20003;-72
2021/05/03 14:39:56;;;;;;;;;;;12.20;59.20;;;;;;4987349;28;20387;-72
2021/05/03 14:42:22;;;;;;;;;;;12.10;59.40;;;;;;4986813;28;20338;-68
2021/05/03 14:44:48;;;;;;;;;;;12.00;60.80;;;;;;4986770;28;19940;-67
2021/05/03 14:47:20;;;;;;;;;;;11.90;60.90;;;;;;4987756;28;19968;-71
2021/05/03 14:50:32;;;;;;;;;;;11.70;61.20;;;;;;4984782;28;20511;-65
2021/05/03 14:52:55;;;;;;;;;;;11.60;61.50;;;;;;4979916;28;20016;-63
2021/05/03 14:55:20;;;;;;;;;;;11.40;61.70;;;;;;4989613;28;19925;-64
2021/05/03 14:57:46;;;;;;;;;;;11.30;61.80;;;;;;4988470;28;19936;-63
2021/05/03 15:00:12;;;;;;;;;;;11.30;62.80;;;;;;4989592;28;20013;-63
2021/05/03 15:02:38;;;;;;;;;;;11.40;62.50;;;;;;4988652;28;20402;-64
2021/05/03 15:05:04;;;;;;;;;;;11.50;62.30;;;;;;4989809;28;20476;-64
2021/05/03 15:07:30;;;;;;;;;;;11.50;62.60;;;;;;4989200;28;20021;-64
2021/05/03 15:09:56;;;;;;;;;;;11.40;62.40;;;;;;4987599;28;20028;-63
2021/05/03 15:12:25;;;;;;;;;;;11.40;62.90;;;;;;4989904;28;19977;-71
2021/05/03 15:22:36;;;;;;;;;;;11.80;61.90;;;;;;4989448;28;19930;-63
2021/05/03 15:25:06;;;;;;;;;;;12.00;61.40;;;;;;4989365;28;19933;-64
2021/05/03 15:27:44;;;;;;;;;;;12.20;59.70;;;;;;4989475;28;19988;-68
2021/05/03 15:30:27;;;;;;;;;;;12.30;58.50;;;;;;4989501;28;19961;-64
2021/05/03 15:35:24;;;;;;;;;;;12.40;57.70;;;;;;4989195;28;19930;-63
2021/05/03 15:37:50;;;;;;;;;;;12.40;57.70;;;;;;4989344;28;19999;-64
2021/05/03 15:40:16;;;;;;;;;;;12.40;58.60;;;;;;4993174;28;19964;-64
2021/05/03 15:42:43;;;;;;;;;;;12.20;58.80;;;;;;4993316;28;20424;-67